createdAt,value
2017-10-04T00:00:34.018Z,98.94
2017-10-04T00:01:34.009Z,99.41
2017-10-04T00:02:34.000Z,99.41
2017-10-04T00:03:33.993Z,99.13
2017-10-04T00:04:33.979Z,99.32
2017-10-04T00:05:33.969Z,99.13
2017-10-04T00:06:33.964Z,99.03
2017-10-04T00:07:33.957Z,98.74
2017-10-04T00:08:33.945Z,98.7
2017-10-04T00:09:33.940Z,98.89
2017-10-04T00:10:33.609Z,98.79
2017-10-04T00:11:33.597Z,98.7
2017-10-04T00:12:33.907Z,98.6
2017-10-04T00:13:33.896Z,98.79
2017-10-04T00:14:33.902Z,98.79
2017-10-04T00:15:33.880Z,98.89
2017-10-04T00:16:33.979Z,98.7
2017-10-04T00:17:33.543Z,99.18
2017-10-04T00:18:33.854Z,98.89
2017-10-04T00:19:33.847Z,98.89
2017-10-04T00:20:33.836Z,99.08
2017-10-04T00:21:33.829Z,99.18
2017-10-04T00:22:33.819Z,98.99
2017-10-04T00:23:33.815Z,99.18
2017-10-04T00:24:33.802Z,98.99
2017-10-04T00:25:33.790Z,98.89
2017-10-04T00:26:33.785Z,98.99
2017-10-04T00:27:33.776Z,98.89
2017-10-04T00:28:33.446Z,98.99
2017-10-04T00:29:33.758Z,98.89
2017-10-04T00:30:33.746Z,98.7
2017-10-04T00:31:33.742Z,98.51
2017-10-04T00:32:33.731Z,98.6
2017-10-04T00:33:33.720Z,98.51
2017-10-04T00:34:33.713Z,99.08
2017-10-04T00:35:33.706Z,98.6
2017-10-04T00:36:33.698Z,99.18
2017-10-04T00:37:33.690Z,99.18
2017-10-04T00:38:33.677Z,98.6
2017-10-04T00:39:33.667Z,98.7
2017-10-04T00:40:33.661Z,99.18
2017-10-04T00:41:33.654Z,98.6
2017-10-04T00:42:33.642Z,99.37
2017-10-04T00:43:33.634Z,99.18
2017-10-04T00:44:33.623Z,99.18
2017-10-04T00:45:33.615Z,99.08
2017-10-04T00:46:33.289Z,99.18
2017-10-04T00:47:33.599Z,98.51
2017-10-04T00:48:33.589Z,99.27
2017-10-04T00:49:33.584Z,99.27
2017-10-04T00:50:33.252Z,99.27
2017-10-04T00:51:33.561Z,99.08
2017-10-04T00:52:33.556Z,99.08
2017-10-04T00:53:33.544Z,98.89
2017-10-04T00:54:33.537Z,99.32
2017-10-04T00:55:33.529Z,99.18
2017-10-04T00:56:33.519Z,99.13
2017-10-04T00:57:33.510Z,99.22
2017-10-04T00:58:33.506Z,99.03
2017-10-04T00:59:33.490Z,99.13
2017-10-04T01:00:33.482Z,98.84
2017-10-04T01:01:33.480Z,99.03
2017-10-04T01:02:33.471Z,98.84
2017-10-04T01:03:33.457Z,98.84
2017-10-04T01:04:33.448Z,99.32
2017-10-04T01:05:33.437Z,98.84
2017-10-04T01:06:33.428Z,98.84
2017-10-04T01:07:33.422Z,99.32
2017-10-04T01:08:33.415Z,98.94
2017-10-04T01:09:33.402Z,98.84
2017-10-04T01:10:33.396Z,98.94
2017-10-04T01:11:33.385Z,98.84
2017-10-04T01:12:33.375Z,98.84
2017-10-04T01:13:33.366Z,98.94
2017-10-04T01:14:33.358Z,99.32
2017-10-04T01:15:33.351Z,99.03
2017-10-04T01:16:33.340Z,99.03
2017-10-04T01:17:33.331Z,99.03
2017-10-04T01:18:33.320Z,98.94
2017-10-04T01:19:33.313Z,98.84
2017-10-04T01:20:33.303Z,98.94
2017-10-04T01:21:32.972Z,98.84
2017-10-04T01:22:33.286Z,98.74
2017-10-04T01:23:33.278Z,98.94
2017-10-04T01:24:33.269Z,98.74
2017-10-04T01:25:33.262Z,98.94
2017-10-04T01:26:33.249Z,98.94
2017-10-04T01:27:33.238Z,98.74
2017-10-04T01:28:33.230Z,98.94
2017-10-04T01:29:33.220Z,98.84
2017-10-04T01:30:33.220Z,98.65
2017-10-04T01:31:33.229Z,98.55
2017-10-04T01:32:33.194Z,98.65
2017-10-04T01:33:33.187Z,98.74
2017-10-04T01:34:33.178Z,98.65
2017-10-04T01:35:33.170Z,98.65
2017-10-04T01:36:33.157Z,99.41
2017-10-04T01:37:33.150Z,98.94
2017-10-04T01:38:32.821Z,98.65
2017-10-04T01:39:33.137Z,98.94
2017-10-04T01:40:33.125Z,98.65
2017-10-04T01:41:32.794Z,98.65
2017-10-04T01:42:33.107Z,98.65
2017-10-04T01:43:32.775Z,99.6
2017-10-04T01:44:32.769Z,99.6
2017-10-04T01:45:33.079Z,99.03
2017-10-04T01:46:33.079Z,99.6
2017-10-04T01:47:33.060Z,99.03
2017-10-04T01:48:33.051Z,99.51
2017-10-04T01:49:33.040Z,99.03
2017-10-04T01:50:33.034Z,99.22
2017-10-04T01:51:33.029Z,99.22
2017-10-04T01:52:33.012Z,99.03
2017-10-04T01:53:33.008Z,98.55
2017-10-04T01:54:33.002Z,99.32
2017-10-04T01:55:32.991Z,99.22
2017-10-04T01:56:32.977Z,99.41
2017-10-04T01:57:32.969Z,99.6
2017-10-04T01:58:32.958Z,99.03
2017-10-04T01:59:32.950Z,98.99
2017-10-04T02:00:32.941Z,98.55
2017-10-04T02:01:32.935Z,99.32
2017-10-04T02:02:32.923Z,99.03
2017-10-04T02:03:32.915Z,98.65
2017-10-04T02:04:32.905Z,98.84
2017-10-04T02:05:32.897Z,98.94
2017-10-04T02:06:32.569Z,99.41
2017-10-04T02:07:32.878Z,98.7
2017-10-04T02:08:32.870Z,98.94
2017-10-04T02:09:32.863Z,99.41
2017-10-04T02:10:32.854Z,99.41
2017-10-04T02:11:32.842Z,99.41
2017-10-04T02:12:32.833Z,99.41
2017-10-04T02:13:32.505Z,99.03
2017-10-04T02:14:32.819Z,99.03
2017-10-04T02:15:32.808Z,99.03
2017-10-04T02:16:32.479Z,98.7
2017-10-04T02:17:32.792Z,99.41
2017-10-04T02:18:32.779Z,99.41
2017-10-04T02:19:32.769Z,98.74
2017-10-04T02:20:32.761Z,98.74
2017-10-04T02:21:32.750Z,98.84
2017-10-04T02:22:32.741Z,98.65
2017-10-04T02:23:32.735Z,99.46
2017-10-04T02:24:32.727Z,99.32
2017-10-04T02:25:32.395Z,98.55
2017-10-04T02:26:33.009Z,98.89
2017-10-04T02:27:32.698Z,98.74
2017-10-04T02:28:32.703Z,98.74
2017-10-04T02:29:32.680Z,98.79
2017-10-04T02:30:32.672Z,98.84
2017-10-04T02:31:32.664Z,98.84
2017-10-04T02:32:32.654Z,98.84
2017-10-04T02:33:32.651Z,98.7
2017-10-04T02:34:32.639Z,99.08
2017-10-04T02:35:32.626Z,98.94
2017-10-04T02:36:32.618Z,98.65
2017-10-04T02:37:32.292Z,98.99
2017-10-04T02:38:32.601Z,99.13
2017-10-04T02:39:32.591Z,98.94
2017-10-04T02:40:32.263Z,99.22
2017-10-04T02:41:32.571Z,99.03
2017-10-04T02:42:32.244Z,98.65
2017-10-04T02:43:32.555Z,99.13
2017-10-04T02:44:32.545Z,99.03
2017-10-04T02:45:32.538Z,99.03
2017-10-04T02:46:32.533Z,99.22
2017-10-04T02:47:32.520Z,99.03
2017-10-04T02:48:32.512Z,99.13
2017-10-04T02:49:32.502Z,99.32
2017-10-04T02:50:32.490Z,99.03
2017-10-04T02:51:32.482Z,99.13
2017-10-04T02:52:32.153Z,99.03
2017-10-04T02:53:32.462Z,98.94
2017-10-04T02:54:32.463Z,99.08
2017-10-04T02:55:32.125Z,99.46
2017-10-04T02:56:32.117Z,98.65
2017-10-04T02:57:32.431Z,98.84
2017-10-04T02:58:32.420Z,99.46
2017-10-04T02:59:32.409Z,99.41
2017-10-04T03:00:32.084Z,99.6
2017-10-04T03:01:32.072Z,99.41
2017-10-04T03:02:32.386Z,99.03
2017-10-04T03:03:32.055Z,98.7
2017-10-04T03:04:32.365Z,98.65
2017-10-04T03:05:32.359Z,98.84
2017-10-04T03:06:32.028Z,98.94
2017-10-04T03:07:32.343Z,98.65
2017-10-04T03:08:32.010Z,98.94
2017-10-04T03:09:32.000Z,98.65
2017-10-04T03:10:31.992Z,99.22
2017-10-04T03:11:32.304Z,99.32
2017-10-04T03:12:31.975Z,99.22
2017-10-04T03:13:32.285Z,98.65
2017-10-04T03:14:31.956Z,99.22
2017-10-04T03:15:31.948Z,99.41
2017-10-04T03:16:32.260Z,99.41
2017-10-04T03:17:32.252Z,99.41
2017-10-04T03:18:32.238Z,99.41
2017-10-04T03:19:32.233Z,99.32
2017-10-04T03:20:32.222Z,99.32
2017-10-04T03:21:32.210Z,99.03
2017-10-04T03:22:32.208Z,99.41
2017-10-04T03:23:32.394Z,99.41
2017-10-04T03:24:32.185Z,99.51
2017-10-04T03:25:32.174Z,99.03
2017-10-04T03:26:32.165Z,99.22
2017-10-04T03:27:32.158Z,99.32
2017-10-04T03:28:32.149Z,99.32
2017-10-04T03:29:32.136Z,99.51
2017-10-04T03:30:32.131Z,99.22
2017-10-04T03:31:32.121Z,99.22
2017-10-04T03:32:32.111Z,99.22
2017-10-04T03:33:32.105Z,99.22
2017-10-04T03:34:32.097Z,99.22
2017-10-04T03:35:32.086Z,99.22
2017-10-04T03:36:31.754Z,99.51
2017-10-04T03:37:32.064Z,99.22
2017-10-04T03:38:32.059Z,99.32
2017-10-04T03:39:32.050Z,99.22
2017-10-04T03:40:32.042Z,99.51
2017-10-04T03:41:31.708Z,99.32
2017-10-04T03:42:32.019Z,99.32
2017-10-04T03:43:32.013Z,99.41
2017-10-04T03:44:32.004Z,99.03
2017-10-04T03:45:32.001Z,99.32
2017-10-04T03:46:31.983Z,99.03
2017-10-04T03:47:31.972Z,99.32
2017-10-04T03:48:31.967Z,99.32
2017-10-04T03:49:31.953Z,99.03
2017-10-04T03:50:31.948Z,99.22
2017-10-04T03:51:31.618Z,99.13
2017-10-04T03:52:31.935Z,99.32
2017-10-04T03:53:31.922Z,99.03
2017-10-04T03:54:31.907Z,99.22
2017-10-04T03:55:31.901Z,99.32
2017-10-04T03:56:31.894Z,99.32
2017-10-04T03:57:31.883Z,99.22
2017-10-04T03:58:31.553Z,98.94
2017-10-04T03:59:31.868Z,99.22
2017-10-04T04:00:31.853Z,99.6
2017-10-04T04:01:31.846Z,99.03
2017-10-04T04:02:31.840Z,99.13
2017-10-04T04:03:31.832Z,99.22
2017-10-04T04:04:31.817Z,99.22
2017-10-04T04:05:31.808Z,99.03
2017-10-04T04:06:31.821Z,99.03
2017-10-04T04:07:31.791Z,99.89
2017-10-04T04:08:31.460Z,99.69
2017-10-04T04:09:31.770Z,99.69
2017-10-04T04:10:31.761Z,99.69
2017-10-04T04:11:31.753Z,99.6
2017-10-04T04:12:31.741Z,99.6
2017-10-04T04:13:31.757Z,99.03
2017-10-04T04:14:31.725Z,99.03
2017-10-04T04:15:31.716Z,99.69
2017-10-04T04:16:31.704Z,99.6
2017-10-04T04:17:31.695Z,99.69
2017-10-04T04:18:31.687Z,99.03
2017-10-04T04:19:31.695Z,99.69
2017-10-04T04:20:31.675Z,99.69
2017-10-04T04:21:31.657Z,99.89
2017-10-04T04:22:31.649Z,99.69
2017-10-04T04:23:31.639Z,99.79
2017-10-04T04:24:31.628Z,99.69
2017-10-04T04:25:31.623Z,99.03
2017-10-04T04:26:31.613Z,99.79
2017-10-04T04:27:31.602Z,99.69
2017-10-04T04:28:31.596Z,99.69
2017-10-04T04:29:31.590Z,99.03
2017-10-04T04:30:31.576Z,99.03
2017-10-04T04:31:31.248Z,99.69
2017-10-04T04:32:31.555Z,99.69
2017-10-04T04:33:31.547Z,99.69
2017-10-04T04:34:31.546Z,99.51
2017-10-04T04:35:31.529Z,99.6
2017-10-04T04:36:31.519Z,99.69
2017-10-04T04:37:31.510Z,99.69
2017-10-04T04:38:31.498Z,99.69
2017-10-04T04:39:31.494Z,99.6
2017-10-04T04:40:31.163Z,99.69
2017-10-04T04:41:31.477Z,99.51
2017-10-04T04:42:31.465Z,99.51
2017-10-04T04:43:31.453Z,99.51
2017-10-04T04:44:31.127Z,99.51
2017-10-04T04:45:31.436Z,99.03
2017-10-04T04:46:31.428Z,99.03
2017-10-04T04:47:31.418Z,99.03
2017-10-04T04:48:31.410Z,99.22
2017-10-04T04:49:31.402Z,98.84
2017-10-04T04:50:31.394Z,99.32
2017-10-04T04:51:31.385Z,99.22
2017-10-04T04:52:31.372Z,99.22
2017-10-04T04:53:31.367Z,99.22
2017-10-04T04:54:31.354Z,99.27
2017-10-04T04:55:31.347Z,99.41
2017-10-04T04:56:31.334Z,99.37
2017-10-04T04:57:31.326Z,99.37
2017-10-04T04:58:31.323Z,99.32
2017-10-04T04:59:31.312Z,99.27
2017-10-04T05:00:31.300Z,99.27
2017-10-04T05:01:30.972Z,99.37
2017-10-04T05:02:31.282Z,99.27
2017-10-04T05:03:30.955Z,99.46
2017-10-04T05:04:31.262Z,99.08
2017-10-04T05:05:31.253Z,98.89
2017-10-04T05:06:31.247Z,99.27
2017-10-04T05:07:31.243Z,99.27
2017-10-04T05:08:31.228Z,99.27
2017-10-04T05:09:31.218Z,99.37
2017-10-04T05:10:31.210Z,99.27
2017-10-04T05:11:31.198Z,99.27
2017-10-04T05:12:31.189Z,99.27
2017-10-04T05:13:31.188Z,99.18
2017-10-04T05:14:31.177Z,99.46
2017-10-04T05:15:31.163Z,99.27
2017-10-04T05:16:31.161Z,99.37
2017-10-04T05:17:31.147Z,99.27
2017-10-04T05:18:30.819Z,99.37
2017-10-04T05:19:30.807Z,99.27
2017-10-04T05:20:31.118Z,99.08
2017-10-04T05:21:31.111Z,98.99
2017-10-04T05:22:31.104Z,99.18
2017-10-04T05:23:31.093Z,99.27
2017-10-04T05:24:31.084Z,99.08
2017-10-04T05:25:30.755Z,98.99
2017-10-04T05:26:31.066Z,99.08
2017-10-04T05:27:31.060Z,98.89
2017-10-04T05:28:31.048Z,99.08
2017-10-04T05:29:31.040Z,99.37
2017-10-04T05:30:31.029Z,99.46
2017-10-04T05:31:31.021Z,99.08
2017-10-04T05:32:30.692Z,99.46
2017-10-04T05:33:31.001Z,99.27
2017-10-04T05:34:30.994Z,99.46
2017-10-04T05:35:30.984Z,99.27
2017-10-04T05:36:30.977Z,99.08
2017-10-04T05:37:30.969Z,98.79
2017-10-04T05:38:30.957Z,98.79
2017-10-04T05:39:30.956Z,98.79
2017-10-04T05:40:30.942Z,98.79
2017-10-04T05:41:30.932Z,98.79
2017-10-04T05:42:30.926Z,98.7
2017-10-04T05:43:30.920Z,98.85
2017-10-04T05:44:30.906Z,98.65
2017-10-04T05:45:30.909Z,98.7
2017-10-04T05:46:30.888Z,98.6
2017-10-04T05:47:30.882Z,98.79
2017-10-04T05:48:30.872Z,98.75
2017-10-04T05:49:30.544Z,98.85
2017-10-04T05:50:30.535Z,98.94
2017-10-04T05:51:30.843Z,98.56
2017-10-04T05:52:30.836Z,98.85
2017-10-04T05:53:30.825Z,98.85
2017-10-04T05:54:30.502Z,98.85
2017-10-04T05:55:30.817Z,98.75
2017-10-04T05:56:30.803Z,98.85
2017-10-04T05:57:30.795Z,98.75
2017-10-04T05:58:30.989Z,98.85
2017-10-04T05:59:31.027Z,98.94
2017-10-04T06:00:30.767Z,98.94
2017-10-04T06:01:30.758Z,98.75
2017-10-04T06:02:30.432Z,98.85
2017-10-04T06:03:30.744Z,98.85
2017-10-04T06:04:30.734Z,99.04
2017-10-04T06:05:30.728Z,99.13
2017-10-04T06:06:30.716Z,98.85
2017-10-04T06:07:30.708Z,99.08
2017-10-04T06:08:30.703Z,98.42
2017-10-04T06:09:30.691Z,98.42
2017-10-04T06:10:30.684Z,99.08
2017-10-04T06:11:30.677Z,98.7
2017-10-04T06:12:30.670Z,98.8
2017-10-04T06:13:30.341Z,98.42
2017-10-04T06:14:30.654Z,98.61
2017-10-04T06:15:30.646Z,98.61
2017-10-04T06:16:30.638Z,98.61
2017-10-04T06:17:30.632Z,98.99
2017-10-04T06:18:30.626Z,98.51
2017-10-04T06:19:30.614Z,98.56
2017-10-04T06:20:30.285Z,98.37
2017-10-04T06:21:30.594Z,99.04
2017-10-04T06:22:30.589Z,98.56
2017-10-04T06:23:30.584Z,98.94
2017-10-04T06:24:30.572Z,98.18
2017-10-04T06:25:30.566Z,99.42
2017-10-04T06:26:30.565Z,98.94
2017-10-04T06:27:30.553Z,98.18
2017-10-04T06:28:30.543Z,98.47
2017-10-04T06:29:30.541Z,98.37
2017-10-04T06:30:30.526Z,97.71
2017-10-04T06:31:30.518Z,98.13
2017-10-04T06:32:30.516Z,97.94
2017-10-04T06:33:30.516Z,98.03
2017-10-04T06:34:30.497Z,97.94
2017-10-04T06:35:30.490Z,97.94
2017-10-04T06:36:30.486Z,98.13
2017-10-04T06:37:30.473Z,98.32
2017-10-04T06:38:30.469Z,98.28
2017-10-04T06:39:30.458Z,98.03
2017-10-04T06:40:30.453Z,97.99
2017-10-04T06:41:30.444Z,98.18
2017-10-04T06:42:30.440Z,97.8
2017-10-04T06:43:30.432Z,97.8
2017-10-04T06:44:30.428Z,97.99
2017-10-04T06:45:30.426Z,97.71
2017-10-04T06:46:30.413Z,97.99
2017-10-04T06:47:30.406Z,97.85
2017-10-04T06:48:30.399Z,98.04
2017-10-04T06:49:30.389Z,97.47
2017-10-04T06:50:30.385Z,97.85
2017-10-04T06:51:30.629Z,97.47
2017-10-04T06:52:30.372Z,97.85
2017-10-04T06:53:30.365Z,97.56
2017-10-04T06:54:30.360Z,97.94
2017-10-04T06:55:30.351Z,97.37
2017-10-04T06:56:30.346Z,97.56
2017-10-04T06:57:30.335Z,97.66
2017-10-04T06:58:30.331Z,97.71
2017-10-04T06:59:30.327Z,97.99
2017-10-04T07:00:30.321Z,97.71
2017-10-04T07:01:30.312Z,97.42
2017-10-04T07:02:30.306Z,97.71
2017-10-04T07:03:29.980Z,97.61
2017-10-04T07:04:30.298Z,97.33
2017-10-04T07:05:30.290Z,97.71
2017-10-04T07:06:30.284Z,97.71
2017-10-04T07:07:30.279Z,97.52
2017-10-04T07:08:29.949Z,97.23
2017-10-04T07:09:29.943Z,97.33
2017-10-04T07:10:30.257Z,97.33
2017-10-04T07:11:30.256Z,97.52
2017-10-04T07:12:30.242Z,97.8
2017-10-04T07:13:30.237Z,97.33
2017-10-04T07:14:30.240Z,97.52
2017-10-04T07:15:30.230Z,97.61
2017-10-04T07:16:30.218Z,97.61
2017-10-04T07:17:30.210Z,97.9
2017-10-04T07:18:30.209Z,97.8
2017-10-04T07:19:30.199Z,97.33
2017-10-04T07:20:30.195Z,97.71
2017-10-04T07:21:30.189Z,97.8
2017-10-04T07:22:30.433Z,97.42
2017-10-04T07:23:30.176Z,97.9
2017-10-04T07:24:30.168Z,97.71
2017-10-04T07:25:30.165Z,97.71
2017-10-04T07:26:30.156Z,97.71
2017-10-04T07:27:30.149Z,97.66
2017-10-04T07:28:30.154Z,97.85
2017-10-04T07:29:30.141Z,97.8
2017-10-04T07:30:30.133Z,97.9
2017-10-04T07:31:30.126Z,97.37
2017-10-04T07:32:30.124Z,97.75
2017-10-04T07:33:30.119Z,97.18
2017-10-04T07:34:30.110Z,97.42
2017-10-04T07:35:30.104Z,97.8
2017-10-04T07:36:30.103Z,97.8
2017-10-04T07:37:30.091Z,97.8
2017-10-04T07:38:30.095Z,98.38
2017-10-04T07:39:30.082Z,97.95
2017-10-04T07:40:30.075Z,97.95
2017-10-04T07:41:30.071Z,98.9
2017-10-04T07:42:30.066Z,97.95
2017-10-04T07:43:30.061Z,97.56
2017-10-04T07:44:30.052Z,97.56
2017-10-04T07:45:29.724Z,97.28
2017-10-04T07:46:30.047Z,98.14
2017-10-04T07:47:30.035Z,97.37
2017-10-04T07:48:30.177Z,97.18
2017-10-04T07:49:30.026Z,97.18
2017-10-04T07:50:30.016Z,98.24
2017-10-04T07:51:29.690Z,97.18
2017-10-04T07:52:30.004Z,97.66
2017-10-04T07:53:29.995Z,97.56
2017-10-04T07:54:29.994Z,97.56
2017-10-04T07:55:29.989Z,97.71
2017-10-04T07:56:29.982Z,97.9
2017-10-04T07:57:29.658Z,98
2017-10-04T07:58:29.975Z,97.42
2017-10-04T07:59:29.965Z,97.23
2017-10-04T08:00:29.965Z,97.61
2017-10-04T08:01:29.957Z,97.9
2017-10-04T08:02:29.949Z,97.9
2017-10-04T08:03:29.628Z,97.09
2017-10-04T08:04:29.939Z,97.09
2017-10-04T08:05:29.933Z,97.56
2017-10-04T08:06:29.929Z,97.38
2017-10-04T08:07:29.926Z,97.66
2017-10-04T08:08:29.919Z,99.58
2017-10-04T08:09:29.914Z,96.99
2017-10-04T08:10:29.907Z,96.03
2017-10-04T08:11:29.582Z,96.03
2017-10-04T08:12:29.903Z,97.18
2017-10-04T08:13:29.915Z,97.85
2017-10-04T08:14:29.888Z,96.61
2017-10-04T08:15:29.879Z,95.94
2017-10-04T08:16:29.879Z,97.09
2017-10-04T08:17:29.904Z,97.8
2017-10-04T08:18:29.547Z,97.42
2017-10-04T08:19:29.859Z,97.8
2017-10-04T08:20:29.858Z,97.18
2017-10-04T08:21:29.852Z,97.28
2017-10-04T08:22:29.529Z,97.28
2017-10-04T08:23:29.842Z,96.03
2017-10-04T08:24:29.838Z,96.32
2017-10-04T08:25:29.831Z,96.51
2017-10-04T08:26:29.830Z,96.37
2017-10-04T08:27:29.822Z,96.47
2017-10-04T08:28:29.501Z,95.12
2017-10-04T08:29:29.817Z,95.31
2017-10-04T08:30:29.819Z,95.7
2017-10-04T08:31:29.805Z,96.47
2017-10-04T08:32:29.803Z,96.18
2017-10-04T08:33:29.796Z,95.21
2017-10-04T08:34:29.797Z,95.07
2017-10-04T08:35:29.471Z,95.46
2017-10-04T08:36:29.785Z,95.07
2017-10-04T08:37:29.464Z,95.65
2017-10-04T08:38:29.780Z,96.22
2017-10-04T08:39:29.776Z,95.94
2017-10-04T08:40:30.069Z,92.05
2017-10-04T08:41:29.764Z,91.66
2017-10-04T08:42:29.762Z,93.92
2017-10-04T08:43:29.759Z,94.49
2017-10-04T08:44:29.761Z,95.26
2017-10-04T08:45:29.751Z,95.31
2017-10-04T08:46:29.747Z,94.64
2017-10-04T08:47:29.741Z,94.45
2017-10-04T08:48:29.736Z,95.6
2017-10-04T08:49:29.418Z,95.31
2017-10-04T08:50:29.731Z,94.83
2017-10-04T08:51:29.727Z,94.54
2017-10-04T08:52:29.727Z,94.26
2017-10-04T08:53:29.723Z,93.77
2017-10-04T08:54:29.717Z,94.54
2017-10-04T08:55:29.395Z,93.97
2017-10-04T08:56:29.714Z,94.16
2017-10-04T08:57:29.707Z,94.74
2017-10-04T08:58:29.706Z,94.26
2017-10-04T08:59:29.705Z,95.21
2017-10-04T09:00:29.696Z,94.83
2017-10-04T09:01:29.692Z,94.21
2017-10-04T09:02:29.690Z,93.59
2017-10-04T09:03:29.686Z,94.35
2017-10-04T09:04:29.692Z,92.91
2017-10-04T09:05:29.357Z,92.43
2017-10-04T09:06:29.676Z,93.39
2017-10-04T09:07:29.675Z,93.59
2017-10-04T09:08:29.669Z,94.26
2017-10-04T09:09:29.669Z,94.93
2017-10-04T09:10:29.661Z,92.96
2017-10-04T09:11:29.657Z,91.42
2017-10-04T09:12:29.660Z,93.73
2017-10-04T09:13:29.652Z,91.9
2017-10-04T09:14:29.328Z,93.05
2017-10-04T09:15:29.645Z,94.11
2017-10-04T09:16:29.640Z,92.14
2017-10-04T09:17:29.317Z,92.72
2017-10-04T09:18:29.636Z,92.91
2017-10-04T09:19:29.632Z,92.14
2017-10-04T09:20:29.311Z,92.91
2017-10-04T09:21:29.629Z,91.85
2017-10-04T09:22:29.654Z,93.24
2017-10-04T09:23:29.621Z,93.53
2017-10-04T09:24:29.620Z,91.9
2017-10-04T09:25:29.614Z,92.19
2017-10-04T09:26:29.294Z,92.96
2017-10-04T09:27:29.611Z,93.24
2017-10-04T09:28:29.610Z,92.38
2017-10-04T09:29:29.607Z,90.21
2017-10-04T09:30:29.601Z,91.08
2017-10-04T09:31:29.601Z,92.71
2017-10-04T09:32:29.597Z,93.1
2017-10-04T09:33:29.594Z,92.91
2017-10-04T09:34:29.273Z,93
2017-10-04T09:35:29.591Z,91.08
2017-10-04T09:36:29.586Z,92.71
2017-10-04T09:37:29.593Z,91.94
2017-10-04T09:38:29.583Z,90.64
2017-10-04T09:39:29.593Z,89.29
2017-10-04T09:40:29.580Z,92.85
2017-10-04T09:41:29.579Z,93.05
2017-10-04T09:42:29.600Z,89.97
2017-10-04T09:43:29.574Z,86.89
2017-10-04T09:44:29.573Z,87.08
2017-10-04T09:45:29.571Z,89.58
2017-10-04T09:46:29.253Z,89.87
2017-10-04T09:47:29.256Z,91.22
2017-10-04T09:48:29.569Z,90.06
2017-10-04T09:49:29.246Z,89.58
2017-10-04T09:50:29.562Z,91.22
2017-10-04T09:51:29.560Z,88.91
2017-10-04T09:52:29.555Z,91.8
2017-10-04T09:53:29.554Z,92.95
2017-10-04T09:54:29.556Z,89.68
2017-10-04T09:55:29.553Z,89.29
2017-10-04T09:56:29.549Z,90.26
2017-10-04T09:57:29.231Z,90.55
2017-10-04T09:58:29.546Z,90.83
2017-10-04T09:59:29.545Z,89.01
2017-10-04T10:00:29.224Z,88
2017-10-04T10:01:29.539Z,89.35
2017-10-04T10:02:29.537Z,88.19
2017-10-04T10:03:29.218Z,87.62
2017-10-04T10:04:29.215Z,90.31
2017-10-04T10:05:29.532Z,91.03
2017-10-04T10:06:29.212Z,90.26
2017-10-04T10:07:29.210Z,90.75
2017-10-04T10:08:29.208Z,88.53
2017-10-04T10:09:29.528Z,90.36
2017-10-04T10:10:29.523Z,89.01
2017-10-04T10:11:29.519Z,91.13
2017-10-04T10:12:29.198Z,91.52
2017-10-04T10:13:29.195Z,91.9
2017-10-04T10:14:29.193Z,91.61
2017-10-04T10:15:29.506Z,88.15
2017-10-04T10:16:29.188Z,88.34
2017-10-04T10:17:29.193Z,90.94
2017-10-04T10:18:29.182Z,91.99
2017-10-04T10:19:29.500Z,91.03
2017-10-04T10:20:29.177Z,91.52
2017-10-04T10:21:29.495Z,90.36
2017-10-04T10:22:29.172Z,88.63
2017-10-04T10:23:29.489Z,89.88
2017-10-04T10:24:29.165Z,87.67
2017-10-04T10:25:29.488Z,85.07
2017-10-04T10:26:29.480Z,85.03
2017-10-04T10:27:29.478Z,87.24
2017-10-04T10:28:29.475Z,86.57
2017-10-04T10:29:29.471Z,86.66
2017-10-04T10:30:29.468Z,86.09
2017-10-04T10:31:29.465Z,84.74
2017-10-04T10:32:29.462Z,86.66
2017-10-04T10:33:29.140Z,87.05
2017-10-04T10:34:29.463Z,85.41
2017-10-04T10:35:29.458Z,85.13
2017-10-04T10:36:29.454Z,83.3
2017-10-04T10:37:29.449Z,83.87
2017-10-04T10:38:29.448Z,83.11
2017-10-04T10:39:29.123Z,85.8
2017-10-04T10:40:29.123Z,83.69
2017-10-04T10:41:29.118Z,85.61
2017-10-04T10:42:29.436Z,86.47
2017-10-04T10:43:29.433Z,85.99
2017-10-04T10:44:29.428Z,85.51
2017-10-04T10:45:29.428Z,86.38
2017-10-04T10:46:29.424Z,85.18
2017-10-04T10:47:29.440Z,84.99
2017-10-04T10:48:29.415Z,83.16
2017-10-04T10:49:29.092Z,84.12
2017-10-04T10:50:29.664Z,85.71
2017-10-04T10:51:29.408Z,86.1
2017-10-04T10:52:29.409Z,85.04
2017-10-04T10:53:29.402Z,84.37
2017-10-04T10:54:29.396Z,83.98
2017-10-04T10:55:29.074Z,82.89
2017-10-04T10:56:29.390Z,83.37
2017-10-04T10:57:29.388Z,83.27
2017-10-04T10:58:29.382Z,83.85
2017-10-04T10:59:29.378Z,85.86
2017-10-04T11:00:29.056Z,86.34
2017-10-04T11:01:29.372Z,87.3
2017-10-04T11:02:29.368Z,86.15
2017-10-04T11:03:29.360Z,83.85
2017-10-04T11:04:29.361Z,84.61
2017-10-04T11:05:29.037Z,85.1
2017-10-04T11:06:29.355Z,85.19
2017-10-04T11:07:29.345Z,85.38
2017-10-04T11:08:29.345Z,84.14
2017-10-04T11:09:29.021Z,85.19
2017-10-04T11:10:29.338Z,84.61
2017-10-04T11:11:29.344Z,85.58
2017-10-04T11:12:29.023Z,85.42
2017-10-04T11:13:29.329Z,85.42
2017-10-04T11:14:29.322Z,85.14
2017-10-04T11:15:29.326Z,84.75
2017-10-04T11:16:28.994Z,84.08
2017-10-04T11:17:29.307Z,83.7
2017-10-04T11:18:29.307Z,82.93
2017-10-04T11:19:29.316Z,82.45
2017-10-04T11:20:29.297Z,83.51
2017-10-04T11:21:29.542Z,81.68
2017-10-04T11:22:28.975Z,81.68
2017-10-04T11:23:29.286Z,81.4
2017-10-04T11:24:29.282Z,81.68
2017-10-04T11:25:29.277Z,81.3
2017-10-04T11:26:29.277Z,80.82
2017-10-04T11:27:29.269Z,80.53
2017-10-04T11:28:29.265Z,81.3
2017-10-04T11:29:29.262Z,80.91
2017-10-04T11:30:29.259Z,81.49
2017-10-04T11:31:29.255Z,82.26
2017-10-04T11:32:29.253Z,81.1
2017-10-04T11:33:29.249Z,81.97
2017-10-04T11:34:29.247Z,81.2
2017-10-04T11:35:29.244Z,81.97
2017-10-04T11:36:29.236Z,82.07
2017-10-04T11:37:29.237Z,82.07
2017-10-04T11:38:29.231Z,82.07
2017-10-04T11:39:29.229Z,81.3
2017-10-04T11:40:29.250Z,81.3
2017-10-04T11:41:29.229Z,81.68
2017-10-04T11:42:29.221Z,80.91
2017-10-04T11:43:29.212Z,80.78
2017-10-04T11:44:29.205Z,81.35
2017-10-04T11:45:29.200Z,80.2
2017-10-04T11:46:29.202Z,81.16
2017-10-04T11:47:29.195Z,82.03
2017-10-04T11:48:29.191Z,80.87
2017-10-04T11:49:28.867Z,81.64
2017-10-04T11:50:29.185Z,81.64
2017-10-04T11:51:29.181Z,81.74
2017-10-04T11:52:29.428Z,81.74
2017-10-04T11:53:28.852Z,81.64
2017-10-04T11:54:29.165Z,81.93
2017-10-04T11:55:29.162Z,81.64
2017-10-04T11:56:29.168Z,81.93
2017-10-04T11:57:29.153Z,82.6
2017-10-04T11:58:29.150Z,82.79
2017-10-04T11:59:29.147Z,82.41
2017-10-04T12:00:29.142Z,82.27
2017-10-04T12:01:29.140Z,83.04
2017-10-04T12:02:29.133Z,83.23
2017-10-04T12:03:29.129Z,83.71
2017-10-04T12:04:29.128Z,83.81
2017-10-04T12:05:29.121Z,83.91
2017-10-04T12:06:29.118Z,84.58
2017-10-04T12:07:29.322Z,84.72
2017-10-04T12:08:29.111Z,84.63
2017-10-04T12:09:29.105Z,84.91
2017-10-04T12:10:29.098Z,84.63
2017-10-04T12:11:29.093Z,83.95
2017-10-04T12:12:29.088Z,84.25
2017-10-04T12:13:29.148Z,84.63
2017-10-04T12:14:29.078Z,85.01
2017-10-04T12:15:29.076Z,85.01
2017-10-04T12:16:29.071Z,85.3
2017-10-04T12:17:29.063Z,85.54
2017-10-04T12:18:29.367Z,85.93
2017-10-04T12:19:29.060Z,85.83
2017-10-04T12:20:29.052Z,85.83
2017-10-04T12:21:28.728Z,85.93
2017-10-04T12:22:29.040Z,86.5
2017-10-04T12:23:29.035Z,86.21
2017-10-04T12:24:29.033Z,86.21
2017-10-04T12:25:29.026Z,86.12
2017-10-04T12:26:29.023Z,86.69
2017-10-04T12:27:29.025Z,86.69
2017-10-04T12:28:29.012Z,86.41
2017-10-04T12:29:29.012Z,86.5
2017-10-04T12:30:29.003Z,86.5
2017-10-04T12:31:29.002Z,86.41
2017-10-04T12:32:28.991Z,86.88
2017-10-04T12:33:29.190Z,86.21
2017-10-04T12:34:28.989Z,86.12
2017-10-04T12:35:28.978Z,85.88
2017-10-04T12:36:28.970Z,84.63
2017-10-04T12:37:28.970Z,83.67
2017-10-04T12:38:28.968Z,83.67
2017-10-04T12:39:28.639Z,84.05
2017-10-04T12:40:28.955Z,83.19
2017-10-04T12:41:28.951Z,82.71
2017-10-04T12:42:28.944Z,83.09
2017-10-04T12:43:28.938Z,83.76
2017-10-04T12:44:28.932Z,82.81
2017-10-04T12:45:28.925Z,82.9
2017-10-04T12:46:28.603Z,83.48
2017-10-04T12:47:28.600Z,83.48
2017-10-04T12:48:28.912Z,83.76
2017-10-04T12:49:28.908Z,82.32
2017-10-04T12:50:28.903Z,82.14
2017-10-04T12:51:28.897Z,82.14
2017-10-04T12:52:28.895Z,82.23
2017-10-04T12:53:28.569Z,81.85
2017-10-04T12:54:28.886Z,82.23
2017-10-04T12:55:28.878Z,82.32